sensor_id;sensor_type;location;lat;lon;timestamp;temperature;humidity
40253;DHT22;25972;51.854;4.534;2022-08-19T00:01:56;18.60;99.90
40253;DHT22;25972;51.854;4.534;2022-08-19T00:04:26;18.60;99.90
40253;DHT22;25972;51.854;4.534;2022-08-19T00:06:54;18.60;99.90
40253;DHT22;25972;51.854;4.534;2022-08-19T00:09:22;18.60;99.90
40253;DHT22;25972;51.854;4.534;2022-08-19T00:11:49;18.60;99.90
40253;DHT22;25972;51.854;4.534;2022-08-19T00:14:16;18.50;99.90
40253;DHT22;25972;51.854;4.534;2022-08-19T00:16:44;18.50;99.90
40253;DHT22;25972;51.854;4.534;2022-08-19T00:19:13;18.50;99.90
40253;DHT22;25972;51.854;4.534;2022-08-19T00:21:39;18.50;99.90
40253;DHT22;25972;51.854;4.534;2022-08-19T00:24:06;18.50;99.90
40253;DHT22;25972;51.854;4.534;2022-08-19T00:26:33;18.40;99.90
40253;DHT22;25972;51.854;4.534;2022-08-19T00:29:00;18.40;99.90
40253;DHT22;25972;51.854;4.534;2022-08-19T00:31:26;18.30;99.90
40253;DHT22;25972;51.854;4.534;2022-08-19T00:33:54;18.30;99.90
40253;DHT22;25972;51.854;4.534;2022-08-19T00:36:20;18.30;99.90
40253;DHT22;25972;51.854;4.534;2022-08-19T00:38:46;18.30;99.90
40253;DHT22;25972;51.854;4.534;2022-08-19T00:41:16;18.30;99.90
40253;DHT22;25972;51.854;4.534;2022-08-19T00:44:06;18.20;99.90
40253;DHT22;25972;51.854;4.534;2022-08-19T00:46:34;18.20;99.90
40253;DHT22;25972;51.854;4.534;2022-08-19T00:49:06;18.20;99.90
40253;DHT22;25972;51.854;4.534;2022-08-19T00:51:32;18.20;99.90
40253;DHT22;25972;51.854;4.534;2022-08-19T00:53:59;18.10;99.90
40253;DHT22;25972;51.854;4.534;2022-08-19T00:56:26;18.10;99.90
40253;DHT22;25972;51.854;4.534;2022-08-19T00:58:54;18.10;99.90
40253;DHT22;25972;51.854;4.534;2022-08-19T01:01:21;18.10;99.90
40253;DHT22;25972;51.854;4.534;2022-08-19T01:03:48;18.10;99.90
40253;DHT22;25972;51.854;4.534;2022-08-19T01:06:14;18.10;99.90
40253;DHT22;25972;51.854;4.534;2022-08-19T01:08:40;18.00;99.90
40253;DHT22;25972;51.854;4.534;2022-08-19T01:11:08;18.00;99.90
40253;DHT22;25972;51.854;4.534;2022-08-19T01:13:36;18.00;99.90
40253;DHT22;25972;51.854;4.534;2022-08-19T01:16:05;18.00;99.90
40253;DHT22;25972;51.854;4.534;2022-08-19T01:18:35;18.00;99.90
40253;DHT22;25972;51.854;4.534;2022-08-19T01:21:08;18.00;99.90
40253;DHT22;25972;51.854;4.534;2022-08-19T01:23:35;18.00;99.90
40253;DHT22;25972;51.854;4.534;2022-08-19T01:26:15;17.90;99.90
40253;DHT22;25972;51.854;4.534;2022-08-19T01:28:42;17.90;99.90
40253;DHT22;25972;51.854;4.534;2022-08-19T01:31:13;18.00;99.90
40253;DHT22;25972;51.854;4.534;2022-08-19T01:33:39;17.90;99.90
40253;DHT22;25972;51.854;4.534;2022-08-19T01:36:07;17.90;99.90
40253;DHT22;25972;51.854;4.534;2022-08-19T01:38:38;17.90;99.90
40253;DHT22;25972;51.854;4.534;2022-08-19T01:41:04;17.90;99.90
40253;DHT22;25972;51.854;4.534;2022-08-19T01:43:30;17.90;99.90
40253;DHT22;25972;51.854;4.534;2022-08-19T01:45:55;17.90;99.90
40253;DHT22;25972;51.854;4.534;2022-08-19T01:48:21;17.80;99.90
40253;DHT22;25972;51.854;4.534;2022-08-19T01:50:48;17.80;99.90
40253;DHT22;25972;51.854;4.534;2022-08-19T01:53:16;17.90;99.90
40253;DHT22;25972;51.854;4.534;2022-08-19T01:55:43;17.80;99.90
40253;DHT22;25972;51.854;4.534;2022-08-19T01:58:15;17.90;99.90
40253;DHT22;25972;51.854;4.534;2022-08-19T02:00:42;17.90;99.90
40253;DHT22;25972;51.854;4.534;2022-08-19T02:03:08;17.90;99.90
40253;DHT22;25972;51.854;4.534;2022-08-19T02:05:35;18.00;99.90
40253;DHT22;25972;51.854;4.534;2022-08-19T02:08:01;18.00;99.90
40253;DHT22;25972;51.854;4.534;2022-08-19T02:10:26;18.00;99.90
40253;DHT22;25972;51.854;4.534;2022-08-19T02:12:52;18.00;99.90
40253;DHT22;25972;51.854;4.534;2022-08-19T02:15:19;18.00;99.90
40253;DHT22;25972;51.854;4.534;2022-08-19T02:17:45;18.10;99.90
40253;DHT22;25972;51.854;4.534;2022-08-19T02:20:12;18.10;99.90
40253;DHT22;25972;51.854;4.534;2022-08-19T02:22:39;18.10;99.90
40253;DHT22;25972;51.854;4.534;2022-08-19T02:25:08;18.10;99.90
40253;DHT22;25972;51.854;4.534;2022-08-19T02:27:38;18.10;99.90
40253;DHT22;25972;51.854;4.534;2022-08-19T02:30:05;18.10;99.90
40253;DHT22;25972;51.854;4.534;2022-08-19T02:32:31;18.20;99.90
40253;DHT22;25972;51.854;4.534;2022-08-19T02:34:57;18.10;99.90
40253;DHT22;25972;51.854;4.534;2022-08-19T02:37:23;18.20;99.90
40253;DHT22;25972;51.854;4.534;2022-08-19T02:40:09;18.20;99.90
40253;DHT22;25972;51.854;4.534;2022-08-19T02:42:35;18.10;99.90
40253;DHT22;25972;51.854;4.534;2022-08-19T02:45:01;18.10;99.90
40253;DHT22;25972;51.854;4.534;2022-08-19T02:47:27;18.10;99.90
40253;DHT22;25972;51.854;4.534;2022-08-19T02:49:53;18.10;99.90
40253;DHT22;25972;51.854;4.534;2022-08-19T02:52:18;18.10;99.90
40253;DHT22;25972;51.854;4.534;2022-08-19T02:54:44;18.10;99.90
40253;DHT22;25972;51.854;4.534;2022-08-19T02:57:10;18.00;99.90
40253;DHT22;25972;51.854;4.534;2022-08-19T02:59:36;18.00;99.90
40253;DHT22;25972;51.854;4.534;2022-08-19T03:02:02;18.00;99.90
40253;DHT22;25972;51.854;4.534;2022-08-19T03:04:28;18.00;99.90
40253;DHT22;25972;51.854;4.534;2022-08-19T03:06:54;18.10;99.90
40253;DHT22;25972;51.854;4.534;2022-08-19T03:09:20;18.00;99.90
40253;DHT22;25972;51.854;4.534;2022-08-19T03:11:46;18.00;99.90
40253;DHT22;25972;51.854;4.534;2022-08-19T03:14:12;18.10;99.90
40253;DHT22;25972;51.854;4.534;2022-08-19T03:16:51;18.00;99.90
40253;DHT22;25972;51.854;4.534;2022-08-19T03:19:19;18.00;99.90
40253;DHT22;25972;51.854;4.534;2022-08-19T03:21:46;18.00;99.90
40253;DHT22;25972;51.854;4.534;2022-08-19T03:24:14;17.90;99.90
40253;DHT22;25972;51.854;4.534;2022-08-19T03:26:42;17.90;99.90
40253;DHT22;25972;51.854;4.534;2022-08-19T03:29:09;17.90;99.90
40253;DHT22;25972;51.854;4.534;2022-08-19T03:31:38;17.90;99.90
40253;DHT22;25972;51.854;4.534;2022-08-19T03:34:04;17.90;99.90
40253;DHT22;25972;51.854;4.534;2022-08-19T03:36:30;17.90;99.90
40253;DHT22;25972;51.854;4.534;2022-08-19T03:38:58;17.90;99.90
40253;DHT22;25972;51.854;4.534;2022-08-19T03:41:47;17.90;99.90
40253;DHT22;25972;51.854;4.534;2022-08-19T03:44:20;17.90;99.90
40253;DHT22;25972;51.854;4.534;2022-08-19T03:46:49;17.80;99.90
40253;DHT22;25972;51.854;4.534;2022-08-19T03:49:16;17.80;99.90
40253;DHT22;25972;51.854;4.534;2022-08-19T03:51:42;17.80;99.90
40253;DHT22;25972;51.854;4.534;2022-08-19T03:54:10;17.80;99.90
40253;DHT22;25972;51.854;4.534;2022-08-19T03:56:37;17.80;99.90
40253;DHT22;25972;51.854;4.534;2022-08-19T03:59:06;17.70;99.90
40253;DHT22;25972;51.854;4.534;2022-08-19T04:01:31;17.70;99.90
40253;DHT22;25972;51.854;4.534;2022-08-19T04:04:00;17.60;99.90
40253;DHT22;25972;51.854;4.534;2022-08-19T04:06:29;17.60;99.90
40253;DHT22;25972;51.854;4.534;2022-08-19T04:08:57;17.60;99.90
40253;DHT22;25972;51.854;4.534;2022-08-19T04:11:35;17.60;99.90
40253;DHT22;25972;51.854;4.534;2022-08-19T04:14:01;17.60;99.90
40253;DHT22;25972;51.854;4.534;2022-08-19T04:16:28;17.60;99.90
40253;DHT22;25972;51.854;4.534;2022-08-19T04:18:56;17.60;99.90
40253;DHT22;25972;51.854;4.534;2022-08-19T04:21:24;17.70;99.90
40253;DHT22;25972;51.854;4.534;2022-08-19T04:23:50;17.60;99.90
40253;DHT22;25972;51.854;4.534;2022-08-19T04:26:32;17.70;99.90
40253;DHT22;25972;51.854;4.534;2022-08-19T04:29:06;17.70;99.90
40253;DHT22;25972;51.854;4.534;2022-08-19T04:31:32;17.70;99.90
40253;DHT22;25972;51.854;4.534;2022-08-19T04:34:04;17.70;99.90
40253;DHT22;25972;51.854;4.534;2022-08-19T04:36:33;17.80;99.90
40253;DHT22;25972;51.854;4.534;2022-08-19T04:39:09;17.90;99.90
40253;DHT22;25972;51.854;4.534;2022-08-19T04:41:36;17.80;99.90
40253;DHT22;25972;51.854;4.534;2022-08-19T04:44:20;17.90;99.90
40253;DHT22;25972;51.854;4.534;2022-08-19T04:46:49;18.00;99.90
40253;DHT22;25972;51.854;4.534;2022-08-19T04:49:16;18.00;99.90
40253;DHT22;25972;51.854;4.534;2022-08-19T04:51:44;18.00;99.90
40253;DHT22;25972;51.854;4.534;2022-08-19T04:54:12;18.00;99.90
40253;DHT22;25972;51.854;4.534;2022-08-19T04:56:39;18.00;99.90
40253;DHT22;25972;51.854;4.534;2022-08-19T04:59:06;18.00;99.90
40253;DHT22;25972;51.854;4.534;2022-08-19T05:01:33;18.10;99.90
40253;DHT22;25972;51.854;4.534;2022-08-19T05:04:00;18.10;99.90
40253;DHT22;25972;51.854;4.534;2022-08-19T05:06:31;18.10;99.90
40253;DHT22;25972;51.854;4.534;2022-08-19T05:09:04;18.20;99.90
40253;DHT22;25972;51.854;4.534;2022-08-19T05:11:35;18.20;99.90
40253;DHT22;25972;51.854;4.534;2022-08-19T05:14:04;18.20;99.90
40253;DHT22;25972;51.854;4.534;2022-08-19T05:16:30;18.20;99.90
40253;DHT22;25972;51.854;4.534;2022-08-19T05:18:56;18.20;99.90
40253;DHT22;25972;51.854;4.534;2022-08-19T05:21:41;18.20;99.90
40253;DHT22;25972;51.854;4.534;2022-08-19T05:24:26;18.30;99.90
40253;DHT22;25972;51.854;4.534;2022-08-19T05:26:53;18.30;99.90
40253;DHT22;25972;51.854;4.534;2022-08-19T05:29:23;18.50;99.90
40253;DHT22;25972;51.854;4.534;2022-08-19T05:31:50;18.50;99.90
40253;DHT22;25972;51.854;4.534;2022-08-19T05:34:18;18.50;99.90
40253;DHT22;25972;51.854;4.534;2022-08-19T05:36:50;18.50;99.90
40253;DHT22;25972;51.854;4.534;2022-08-19T05:39:19;18.60;99.90
40253;DHT22;25972;51.854;4.534;2022-08-19T05:41:47;18.60;99.90
40253;DHT22;25972;51.854;4.534;2022-08-19T05:44:14;18.70;99.90
40253;DHT22;25972;51.854;4.534;2022-08-19T05:46:40;18.70;99.90
40253;DHT22;25972;51.854;4.534;2022-08-19T05:49:07;18.70;99.90
40253;DHT22;25972;51.854;4.534;2022-08-19T05:51:34;18.80;99.90
40253;DHT22;25972;51.854;4.534;2022-08-19T05:54:05;18.80;99.90
40253;DHT22;25972;51.854;4.534;2022-08-19T05:56:31;18.90;99.90
40253;DHT22;25972;51.854;4.534;2022-08-19T05:58:58;18.90;99.90
40253;DHT22;25972;51.854;4.534;2022-08-19T06:01:25;18.90;99.90
40253;DHT22;25972;51.854;4.534;2022-08-19T06:03:51;19.00;99.90
40253;DHT22;25972;51.854;4.534;2022-08-19T06:06:17;19.00;99.90
40253;DHT22;25972;51.854;4.534;2022-08-19T06:08:44;19.00;99.90
40253;DHT22;25972;51.854;4.534;2022-08-19T06:11:43;19.10;99.90
40253;DHT22;25972;51.854;4.534;2022-08-19T06:14:13;19.10;99.90
40253;DHT22;25972;51.854;4.534;2022-08-19T06:16:41;19.10;99.90
40253;DHT22;25972;51.854;4.534;2022-08-19T06:19:10;19.20;99.90
40253;DHT22;25972;51.854;4.534;2022-08-19T06:21:39;19.30;99.90
40253;DHT22;25972;51.854;4.534;2022-08-19T06:24:08;19.30;99.90
40253;DHT22;25972;51.854;4.534;2022-08-19T06:26:38;19.30;99.90
40253;DHT22;25972;51.854;4.534;2022-08-19T06:29:08;19.30;99.90
40253;DHT22;25972;51.854;4.534;2022-08-19T06:31:35;19.20;99.90
40253;DHT22;25972;51.854;4.534;2022-08-19T06:34:04;19.20;99.90
40253;DHT22;25972;51.854;4.534;2022-08-19T06:36:34;19.30;99.90
40253;DHT22;25972;51.854;4.534;2022-08-19T06:39:07;19.30;99.90
40253;DHT22;25972;51.854;4.534;2022-08-19T06:41:42;19.30;99.90
40253;DHT22;25972;51.854;4.534;2022-08-19T06:44:17;19.30;99.90
40253;DHT22;25972;51.854;4.534;2022-08-19T06:46:43;19.40;99.90
40253;DHT22;25972;51.854;4.534;2022-08-19T06:49:10;19.30;99.90
40253;DHT22;25972;51.854;4.534;2022-08-19T06:51:40;19.30;99.90
40253;DHT22;25972;51.854;4.534;2022-08-19T06:54:07;19.20;99.90
40253;DHT22;25972;51.854;4.534;2022-08-19T06:56:33;19.40;99.90
40253;DHT22;25972;51.854;4.534;2022-08-19T06:59:21;19.40;99.90
40253;DHT22;25972;51.854;4.534;2022-08-19T07:01:52;19.50;99.90
40253;DHT22;25972;51.854;4.534;2022-08-19T07:04:21;19.50;99.90
40253;DHT22;25972;51.854;4.534;2022-08-19T07:06:48;19.50;99.90
40253;DHT22;25972;51.854;4.534;2022-08-19T07:09:15;19.60;99.90
40253;DHT22;25972;51.854;4.534;2022-08-19T07:11:50;19.70;99.90
40253;DHT22;25972;51.854;4.534;2022-08-19T07:14:21;19.70;99.90
40253;DHT22;25972;51.854;4.534;2022-08-19T07:16:48;19.70;99.90
40253;DHT22;25972;51.854;4.534;2022-08-19T07:19:16;19.80;99.90
40253;DHT22;25972;51.854;4.534;2022-08-19T07:21:42;19.90;99.90
40253;DHT22;25972;51.854;4.534;2022-08-19T07:24:08;20.00;99.90
40253;DHT22;25972;51.854;4.534;2022-08-19T07:26:40;20.10;99.90
40253;DHT22;25972;51.854;4.534;2022-08-19T07:29:06;20.30;99.90
40253;DHT22;25972;51.854;4.534;2022-08-19T07:31:32;20.30;99.90
40253;DHT22;25972;51.854;4.534;2022-08-19T07:34:04;20.40;99.90
40253;DHT22;25972;51.854;4.534;2022-08-19T07:36:35;20.40;99.90
40253;DHT22;25972;51.854;4.534;2022-08-19T07:39:06;20.40;99.90
40253;DHT22;25972;51.854;4.534;2022-08-19T07:41:34;20.30;99.90
40253;DHT22;25972;51.854;4.534;2022-08-19T07:44:01;20.30;99.90
40253;DHT22;25972;51.854;4.534;2022-08-19T07:46:33;20.20;99.90
40253;DHT22;25972;51.854;4.534;2022-08-19T07:48:59;20.20;99.90
40253;DHT22;25972;51.854;4.534;2022-08-19T07:51:27;20.30;99.90
40253;DHT22;25972;51.854;4.534;2022-08-19T07:53:53;20.30;99.90
40253;DHT22;25972;51.854;4.534;2022-08-19T07:56:20;20.30;99.90
40253;DHT22;25972;51.854;4.534;2022-08-19T07:58:48;20.40;99.90
40253;DHT22;25972;51.854;4.534;2022-08-19T08:01:23;20.50;99.90
40253;DHT22;25972;51.854;4.534;2022-08-19T08:03:50;20.60;99.90
40253;DHT22;25972;51.854;4.534;2022-08-19T08:06:35;20.60;99.90
40253;DHT22;25972;51.854;4.534;2022-08-19T08:09:23;20.50;99.90
40253;DHT22;25972;51.854;4.534;2022-08-19T08:12:00;20.60;99.90
40253;DHT22;25972;51.854;4.534;2022-08-19T08:14:30;20.70;99.90
40253;DHT22;25972;51.854;4.534;2022-08-19T08:16:57;20.60;99.90
40253;DHT22;25972;51.854;4.534;2022-08-19T08:19:25;20.70;99.90
40253;DHT22;25972;51.854;4.534;2022-08-19T08:21:51;20.80;99.90
40253;DHT22;25972;51.854;4.534;2022-08-19T08:24:18;21.00;99.90
40253;DHT22;25972;51.854;4.534;2022-08-19T08:26:44;21.20;99.90
40253;DHT22;25972;51.854;4.534;2022-08-19T08:29:14;21.40;99.90
40253;DHT22;25972;51.854;4.534;2022-08-19T08:31:43;21.50;99.90
40253;DHT22;25972;51.854;4.534;2022-08-19T08:34:09;21.50;99.90
40253;DHT22;25972;51.854;4.534;2022-08-19T08:36:42;21.60;99.90
40253;DHT22;25972;51.854;4.534;2022-08-19T08:39:11;21.70;99.90
40253;DHT22;25972;51.854;4.534;2022-08-19T08:41:58;21.90;99.90
40253;DHT22;25972;51.854;4.534;2022-08-19T08:44:38;22.10;99.90
40253;DHT22;25972;51.854;4.534;2022-08-19T08:47:11;22.40;99.90
40253;DHT22;25972;51.854;4.534;2022-08-19T08:52:49;22.90;99.90
40253;DHT22;25972;51.854;4.534;2022-08-19T08:55:20;23.20;99.90
40253;DHT22;25972;51.854;4.534;2022-08-19T09:00:38;23.80;99.90
40253;DHT22;25972;51.854;4.534;2022-08-19T09:03:21;23.90;99.90
40253;DHT22;25972;51.854;4.534;2022-08-19T09:06:04;23.60;99.90
40253;DHT22;25972;51.854;4.534;2022-08-19T09:08:39;23.60;99.90
40253;DHT22;25972;51.854;4.534;2022-08-19T09:11:14;23.50;99.90
40253;DHT22;25972;51.854;4.534;2022-08-19T09:16:19;24.10;99.90
40253;DHT22;25972;51.854;4.534;2022-08-19T09:18:58;24.40;99.90
40253;DHT22;25972;51.854;4.534;2022-08-19T09:21:26;24.10;99.90
40253;DHT22;25972;51.854;4.534;2022-08-19T09:23:53;24.50;99.90
40253;DHT22;25972;51.854;4.534;2022-08-19T09:26:21;24.80;99.90
40253;DHT22;25972;51.854;4.534;2022-08-19T09:28:50;24.90;99.90
40253;DHT22;25972;51.854;4.534;2022-08-19T09:31:23;25.30;99.90
40253;DHT22;25972;51.854;4.534;2022-08-19T09:33:49;25.50;99.90
40253;DHT22;25972;51.854;4.534;2022-08-19T09:36:18;25.40;99.90
40253;DHT22;25972;51.854;4.534;2022-08-19T09:38:44;25.20;99.90
40253;DHT22;25972;51.854;4.534;2022-08-19T09:41:21;25.20;99.90
40253;DHT22;25972;51.854;4.534;2022-08-19T09:43:49;24.90;99.90
40253;DHT22;25972;51.854;4.534;2022-08-19T09:46:18;24.50;99.90
40253;DHT22;25972;51.854;4.534;2022-08-19T09:48:48;24.30;99.90
40253;DHT22;25972;51.854;4.534;2022-08-19T09:51:16;24.30;99.90
40253;DHT22;25972;51.854;4.534;2022-08-19T09:53:44;24.10;99.90
40253;DHT22;25972;51.854;4.534;2022-08-19T09:56:11;24.00;99.90
40253;DHT22;25972;51.854;4.534;2022-08-19T09:58:37;23.80;99.90
40253;DHT22;25972;51.854;4.534;2022-08-19T10:01:05;23.60;99.90
40253;DHT22;25972;51.854;4.534;2022-08-19T10:03:32;23.60;99.90
40253;DHT22;25972;51.854;4.534;2022-08-19T10:06:00;23.60;99.90
40253;DHT22;25972;51.854;4.534;2022-08-19T10:08:32;23.90;99.90
40253;DHT22;25972;51.854;4.534;2022-08-19T10:10:59;24.30;99.90
40253;DHT22;25972;51.854;4.534;2022-08-19T10:13:28;24.60;99.90
40253;DHT22;25972;51.854;4.534;2022-08-19T10:15:56;24.90;99.90
40253;DHT22;25972;51.854;4.534;2022-08-19T10:18:27;25.10;99.90
40253;DHT22;25972;51.854;4.534;2022-08-19T10:21:06;25.30;99.90
40253;DHT22;25972;51.854;4.534;2022-08-19T10:23:37;25.60;99.90
40253;DHT22;25972;51.854;4.534;2022-08-19T10:26:05;25.70;99.90
40253;DHT22;25972;51.854;4.534;2022-08-19T10:28:35;26.00;99.90
40253;DHT22;25972;51.854;4.534;2022-08-19T10:31:06;26.00;99.90
40253;DHT22;25972;51.854;4.534;2022-08-19T10:33:33;25.90;99.90
40253;DHT22;25972;51.854;4.534;2022-08-19T10:36:05;26.10;99.90
40253;DHT22;25972;51.854;4.534;2022-08-19T10:38:32;26.30;99.90
40253;DHT22;25972;51.854;4.534;2022-08-19T10:41:11;26.50;99.90
40253;DHT22;25972;51.854;4.534;2022-08-19T10:43:37;26.40;99.90
40253;DHT22;25972;51.854;4.534;2022-08-19T10:46:05;26.50;99.90
40253;DHT22;25972;51.854;4.534;2022-08-19T10:48:32;26.30;99.90
40253;DHT22;25972;51.854;4.534;2022-08-19T10:50:58;26.30;99.90
40253;DHT22;25972;51.854;4.534;2022-08-19T10:53:43;26.20;99.90
40253;DHT22;25972;51.854;4.534;2022-08-19T10:56:09;26.30;99.90
40253;DHT22;25972;51.854;4.534;2022-08-19T10:58:53;25.90;99.90
40253;DHT22;25972;51.854;4.534;2022-08-19T11:01:19;25.60;99.90
40253;DHT22;25972;51.854;4.534;2022-08-19T11:03:45;25.50;99.90
40253;DHT22;25972;51.854;4.534;2022-08-19T11:06:11;25.50;99.90
40253;DHT22;25972;51.854;4.534;2022-08-19T11:08:37;25.70;99.90
40253;DHT22;25972;51.854;4.534;2022-08-19T11:11:05;25.70;99.90
40253;DHT22;25972;51.854;4.534;2022-08-19T11:13:33;25.50;99.90
40253;DHT22;25972;51.854;4.534;2022-08-19T11:18:28;25.00;99.90
40253;DHT22;25972;51.854;4.534;2022-08-19T11:20:54;24.60;99.90
40253;DHT22;25972;51.854;4.534;2022-08-19T11:23:20;24.50;99.90
40253;DHT22;25972;51.854;4.534;2022-08-19T11:25:46;24.40;99.90
40253;DHT22;25972;51.854;4.534;2022-08-19T11:28:12;24.30;99.90
40253;DHT22;25972;51.854;4.534;2022-08-19T11:30:38;24.20;99.90
40253;DHT22;25972;51.854;4.534;2022-08-19T11:33:07;24.10;99.90
40253;DHT22;25972;51.854;4.534;2022-08-19T11:35:33;24.20;99.90
40253;DHT22;25972;51.854;4.534;2022-08-19T11:37:59;24.40;99.90
40253;DHT22;25972;51.854;4.534;2022-08-19T11:40:26;24.30;99.90
40253;DHT22;25972;51.854;4.534;2022-08-19T11:42:52;24.70;99.90
40253;DHT22;25972;51.854;4.534;2022-08-19T11:45:22;25.10;99.90
40253;DHT22;25972;51.854;4.534;2022-08-19T11:47:48;25.30;99.90
40253;DHT22;25972;51.854;4.534;2022-08-19T11:50:15;25.10;99.90
40253;DHT22;25972;51.854;4.534;2022-08-19T11:52:41;25.20;99.90
40253;DHT22;25972;51.854;4.534;2022-08-19T11:55:08;25.10;99.90
40253;DHT22;25972;51.854;4.534;2022-08-19T11:57:34;25.10;99.90
40253;DHT22;25972;51.854;4.534;2022-08-19T12:00:00;24.90;99.90
40253;DHT22;25972;51.854;4.534;2022-08-19T12:02:27;24.70;99.90
40253;DHT22;25972;51.854;4.534;2022-08-19T12:04:52;24.60;99.90
40253;DHT22;25972;51.854;4.534;2022-08-19T12:07:19;24.60;99.90
40253;DHT22;25972;51.854;4.534;2022-08-19T12:09:45;24.50;99.90
40253;DHT22;25972;51.854;4.534;2022-08-19T12:12:10;24.60;99.90
40253;DHT22;25972;51.854;4.534;2022-08-19T12:14:37;24.50;99.90
40253;DHT22;25972;51.854;4.534;2022-08-19T12:17:03;24.60;99.90
40253;DHT22;25972;51.854;4.534;2022-08-19T12:19:31;24.60;99.90
40253;DHT22;25972;51.854;4.534;2022-08-19T12:22:01;24.50;99.90
40253;DHT22;25972;51.854;4.534;2022-08-19T12:24:31;24.50;99.90
40253;DHT22;25972;51.854;4.534;2022-08-19T12:26:58;24.30;99.90
40253;DHT22;25972;51.854;4.534;2022-08-19T12:29:24;24.10;99.90
40253;DHT22;25972;51.854;4.534;2022-08-19T12:31:54;23.70;99.90
40253;DHT22;25972;51.854;4.534;2022-08-19T12:34:26;23.40;99.90
40253;DHT22;25972;51.854;4.534;2022-08-19T12:36:58;23.00;99.90
40253;DHT22;25972;51.854;4.534;2022-08-19T12:39:26;22.90;99.90
40253;DHT22;25972;51.854;4.534;2022-08-19T12:41:52;22.90;99.90
40253;DHT22;25972;51.854;4.534;2022-08-19T12:44:18;22.90;99.90
40253;DHT22;25972;51.854;4.534;2022-08-19T12:46:44;22.90;99.90
40253;DHT22;25972;51.854;4.534;2022-08-19T12:49:10;22.90;99.90
40253;DHT22;25972;51.854;4.534;2022-08-19T12:51:36;23.00;99.90
40253;DHT22;25972;51.854;4.534;2022-08-19T12:54:02;23.00;99.90
40253;DHT22;25972;51.854;4.534;2022-08-19T12:56:27;23.10;99.90
40253;DHT22;25972;51.854;4.534;2022-08-19T12:58:53;23.10;99.90
40253;DHT22;25972;51.854;4.534;2022-08-19T13:01:19;23.10;99.90
40253;DHT22;25972;51.854;4.534;2022-08-19T13:03:46;23.00;99.90
40253;DHT22;25972;51.854;4.534;2022-08-19T13:06:13;23.20;99.90
40253;DHT22;25972;51.854;4.534;2022-08-19T13:08:39;23.30;99.90
40253;DHT22;25972;51.854;4.534;2022-08-19T13:11:14;23.40;99.90
40253;DHT22;25972;51.854;4.534;2022-08-19T13:13:41;23.60;99.90
40253;DHT22;25972;51.854;4.534;2022-08-19T13:16:09;23.70;99.90
40253;DHT22;25972;51.854;4.534;2022-08-19T13:18:36;23.80;99.90
40253;DHT22;25972;51.854;4.534;2022-08-19T13:21:04;23.80;99.90
40253;DHT22;25972;51.854;4.534;2022-08-19T13:23:31;23.80;99.90
40253;DHT22;25972;51.854;4.534;2022-08-19T13:26:03;23.90;99.90
40253;DHT22;25972;51.854;4.534;2022-08-19T13:28:30;24.00;99.90
40253;DHT22;25972;51.854;4.534;2022-08-19T13:31:20;24.10;99.90
40253;DHT22;25972;51.854;4.534;2022-08-19T13:34:05;24.00;99.90
40253;DHT22;25972;51.854;4.534;2022-08-19T13:36:32;24.20;99.90
40253;DHT22;25972;51.854;4.534;2022-08-19T13:38:58;24.40;99.90
40253;DHT22;25972;51.854;4.534;2022-08-19T13:41:25;24.50;99.90
40253;DHT22;25972;51.854;4.534;2022-08-19T13:43:51;24.40;99.90
40253;DHT22;25972;51.854;4.534;2022-08-19T13:46:18;24.20;99.90
40253;DHT22;25972;51.854;4.534;2022-08-19T13:48:46;24.20;99.90
40253;DHT22;25972;51.854;4.534;2022-08-19T13:51:14;24.30;99.90
40253;DHT22;25972;51.854;4.534;2022-08-19T13:53:42;24.10;99.90
40253;DHT22;25972;51.854;4.534;2022-08-19T13:56:11;24.10;99.90
40253;DHT22;25972;51.854;4.534;2022-08-19T13:58:37;23.90;99.90
40253;DHT22;25972;51.854;4.534;2022-08-19T14:01:04;23.80;99.90
40253;DHT22;25972;51.854;4.534;2022-08-19T14:03:30;23.70;99.90
40253;DHT22;25972;51.854;4.534;2022-08-19T14:05:57;23.70;99.90
40253;DHT22;25972;51.854;4.534;2022-08-19T14:08:23;23.80;99.90
40253;DHT22;25972;51.854;4.534;2022-08-19T14:10:49;23.80;99.90
40253;DHT22;25972;51.854;4.534;2022-08-19T14:13:18;23.80;99.90
40253;DHT22;25972;51.854;4.534;2022-08-19T14:15:45;23.80;99.90
40253;DHT22;25972;51.854;4.534;2022-08-19T14:18:13;23.90;99.90
40253;DHT22;25972;51.854;4.534;2022-08-19T14:20:40;24.20;99.90
40253;DHT22;25972;51.854;4.534;2022-08-19T14:23:05;24.20;99.90
40253;DHT22;25972;51.854;4.534;2022-08-19T14:25:32;24.30;99.90
40253;DHT22;25972;51.854;4.534;2022-08-19T14:28:00;24.10;99.90
40253;DHT22;25972;51.854;4.534;2022-08-19T14:30:31;24.10;99.90
40253;DHT22;25972;51.854;4.534;2022-08-19T14:32:59;24.10;99.90
40253;DHT22;25972;51.854;4.534;2022-08-19T14:35:29;24.00;99.90
40253;DHT22;25972;51.854;4.534;2022-08-19T14:37:55;24.00;99.90
40253;DHT22;25972;51.854;4.534;2022-08-19T14:40:25;24.20;99.90
40253;DHT22;25972;51.854;4.534;2022-08-19T14:42:53;24.10;99.90
40253;DHT22;25972;51.854;4.534;2022-08-19T14:45:28;24.10;99.90
40253;DHT22;25972;51.854;4.534;2022-08-19T14:47:54;24.10;99.90
40253;DHT22;25972;51.854;4.534;2022-08-19T14:50:20;24.10;99.90
40253;DHT22;25972;51.854;4.534;2022-08-19T14:52:47;24.10;99.90
40253;DHT22;25972;51.854;4.534;2022-08-19T14:55:15;24.10;99.90
40253;DHT22;25972;51.854;4.534;2022-08-19T14:57:42;24.10;99.90
40253;DHT22;25972;51.854;4.534;2022-08-19T15:00:09;24.20;99.90
40253;DHT22;25972;51.854;4.534;2022-08-19T15:02:39;24.20;99.90
40253;DHT22;25972;51.854;4.534;2022-08-19T15:05:06;24.20;99.90
40253;DHT22;25972;51.854;4.534;2022-08-19T15:07:32;24.10;99.90
40253;DHT22;25972;51.854;4.534;2022-08-19T15:09:58;24.10;99.90
40253;DHT22;25972;51.854;4.534;2022-08-19T15:12:24;24.00;99.90
40253;DHT22;25972;51.854;4.534;2022-08-19T15:14:50;24.00;99.90
40253;DHT22;25972;51.854;4.534;2022-08-19T15:17:17;23.90;99.90
40253;DHT22;25972;51.854;4.534;2022-08-19T15:19:45;23.90;99.90
40253;DHT22;25972;51.854;4.534;2022-08-19T15:22:11;23.90;99.90
40253;DHT22;25972;51.854;4.534;2022-08-19T15:24:37;23.90;99.90
40253;DHT22;25972;51.854;4.534;2022-08-19T15:27:04;23.80;99.90
40253;DHT22;25972;51.854;4.534;2022-08-19T15:29:30;23.70;99.90
40253;DHT22;25972;51.854;4.534;2022-08-19T15:31:58;23.70;99.90
40253;DHT22;25972;51.854;4.534;2022-08-19T15:34:24;23.60;99.90
40253;DHT22;25972;51.854;4.534;2022-08-19T15:36:54;23.50;99.90
40253;DHT22;25972;51.854;4.534;2022-08-19T15:39:20;23.40;99.90
40253;DHT22;25972;51.854;4.534;2022-08-19T15:41:46;23.40;99.90
40253;DHT22;25972;51.854;4.534;2022-08-19T15:44:14;23.20;99.90
40253;DHT22;25972;51.854;4.534;2022-08-19T15:46:43;23.10;99.90
40253;DHT22;25972;51.854;4.534;2022-08-19T15:49:11;23.00;99.90
40253;DHT22;25972;51.854;4.534;2022-08-19T15:51:39;23.00;99.90